Main page
METAR-TAF:

METAR-TAF

Airports :

Molde Airport. Årø

Molde, Norway

latitude: 62-45N, longitude: 007-16E, elevation: 0 m

Current weather observation

The report was made 30 minutes ago, at 22:50 UTC
Wind 8 kt from the South/Southwest
Temperature 12°C
Humidity 58%
Pressure 1009 hPa
Visibility 10 km or more

METAR: ENML 192250Z AUTO 20008KT 9999NDV OVC052/// 12/04 Q1009

Time: 01:20 (23:20 UTC)

Forecast

The report was made 9 hours and 20 minutes ago, at 14:00 UTC
Forecast valid from 19 at 15 UTC to 19 at 23 UTC
Wind 12 kt from the Southwest
Visibility 10 km or more
Few clouds at a height of 2500 ft
Broken clouds at a height of 4000 ft

TAF: ENML 191400Z 1915/1923 23012KT 9999 FEW025 BKN040

Weather observations and forecasts of more than 4000 airports (METAR and TAF reports).

The available stations are represented by yellow and red dots on the map.

Hover mouse over dot to see the name of the station.

Then click to see weather observations and forecasts.

To change the map : click on the green buttons with a black cross to zoom in, on the green button with a dash to zoom out, or on the green arrows for adjacent maps.


METAR-TAF: